x

9442396 - La Push, Wa (lapw1) Weather Station

4:30 - Sat 1st Oct 2016 All times are PDT. -7 hours from GMT.

  • Wind
    6mph, 9mph gusts
  • Sea Temp 51°f
  • Aire Temp 50°f
  • Sea Pressure 1011.4mb
  • 9442396 - La Push, Wa
  • 9442396 - La Push, Wa

More Historic Weather Station data

Upgrade to MSW Pro to gain access to the past 30 days of data for over 8000 Wavebouys and Weather Stations around the globe.

Join Pro

Comparision Forecast

View Surf forecast
   
sáb 10/01 4:30 6 9 mph 1011.4mb 51f 50f
4:24 3 8 mph 1011.4mb 51f 50f
4:18 6 9 mph 1011.4mb 51f 50f
4:12 7 13 mph 1011.5mb 51f 50f
4:06 6 8 mph 1011.6mb 51f 50f
4:00 6 10 mph 1011.8mb 51f 50f
3:36 6 8 mph 1012.1mb 51f 50f
3:30 6 10 mph 1012.1mb 51f 50f
3:24 5 8 mph 1012.2mb 51f 50f
3:18 6 10 mph 1012.3mb 51f 50f
3:12 5 9 mph 1012.4mb 51f 50f
3:06 5 7 mph 1012.5mb 51f 50f
3:00 5 8 mph 1012.5mb 51f 50f
2:36 3 6 mph 1012.9mb 51f 50f
2:30 3 5 mph 1013mb 51f 50f
2:24 3 6 mph 1013mb 51f 50f
2:18 5 7 mph 1013.1mb 51f 50f
2:12 5 6 mph 1013.1mb 51f 50f
2:06 5 7 mph 1013.2mb 51f 50f
2:00 3 7 mph 1013.3mb 51f 50f
1:36 3 7 mph 1013.5mb 51f 50f
1:30 3 6 mph 1013.6mb 51f 50f
1:24 3 6 mph 1013.7mb 51f 50f
1:18 5 6 mph 1013.8mb 51f 50f
1:12 3 6 mph 1013.8mb 51f 50f
1:06 5 6 mph 1013.9mb 51f 50f
1:00 2 3 mph 1013.9mb 51f 50f
12:36 3 5 mph 1014.1mb 51f -
12:30 3 5 mph 1014.2mb 51f -
12:24 3 5 mph 1014.3mb 51f -
12:18 2 5 mph 1014.3mb 51f -
12:12 2 5 mph 1014.3mb 51f -
12:06 1 6 mph 1014.4mb 51f -
12:00 3 5 mph 1014.4mb 51f -
vie 09/30 11:36 3 6 mph 1014.4mb 51f 50f
11:30 5 6 mph 1014.4mb 51f 50f
11:24 3 6 mph 1014.4mb 51f 50f
11:18 3
mph
1014.5mb 51f 50f
11:12 3 5 mph 1014.5mb 51f 50f
11:06 2 5 mph 1014.7mb 52f 50f
11:00 3 6 mph 1014.8mb 52f 50f
10:36 6 7 mph 1015.2mb 51f 50f
10:30 6
mph
1015.1mb 51f 50f
10:24 3 6 mph 1015.1mb 51f 50f
10:18 3 5 mph 1015mb 52f 50f
10:12 5
mph
1015mb 52f 50f
10:06 3 5 mph 1015mb 52f 50f
10:00 3
mph
1015mb 52f 50f
9:36 3 5 mph 1015.2mb 52f 50f
9:30 2 6 mph 1015.1mb 52f 50f
9:24  -  2 mph 1015mb 52f 50f
9:18 2 5 mph 1015.1mb 52f 50f
9:12 5
mph
1015mb 52f 50f
9:06 1 2 mph 1015.3mb 52f 50f
9:00 2
mph
1015.3mb 52f 50f
8:36 1 2 mph 1015.1mb 53f 50f
8:30 1 2 mph 1015.1mb 53f 51f
8:24 2
mph
1015mb 53f 50f
8:18  -  2 mph 1015.2mb 53f 50f
8:12 2
mph
1015.2mb 54f 50f
8:06 2
mph
1015.1mb 54f 50f
8:00 2 3 mph 1014.9mb 54f 51f
7:36 1 2 mph 1015.2mb 55f 51f
7:30 1 2 mph 1015.2mb 55f 51f
7:24 2 3 mph 1015.2mb 55f 51f
7:18 2 3 mph 1015.2mb 55f 51f
7:12  -  2 mph 1015.1mb 55f 51f
7:06 1 3 mph 1015.1mb 55f 52f
7:00 2 3 mph 1015.1mb 55f 52f
6:36 5 7 mph 1015.2mb 55f 52f
6:30 7 8 mph 1015.2mb 55f 52f
6:24 6 8 mph 1015.3mb 55f 52f
6:18 7 8 mph 1015.4mb 54f 52f
6:12 8
mph
1015.4mb 53f 53f
6:06 7 8 mph 1015.4mb 52f 53f
6:00 6 7 mph 1015.5mb 52f 53f
5:36 6 7 mph 1015.5mb 51f 53f
5:30 6 7 mph 1015.5mb 51f 53f
5:24 6 7 mph 1015.5mb 51f 52f
5:18 6 7 mph 1015.5mb 51f 52f
5:12 6 7 mph 1015.5mb 51f 53f
5:06 6 7 mph 1015.5mb 51f 53f
5:00 6 8 mph 1015.6mb 51f 53f
4:36 7 9 mph 1015.6mb 50f 53f
3:36 8 10 mph 1015.8mb 50f 53f
3:30 8 10 mph 1015.8mb 50f 53f
3:24 8 10 mph 1015.8mb 50f 53f
3:18 9 11 mph 1015.9mb 50f 53f
3:12 9 11 mph 1015.9mb 50f 53f
3:06 10 13 mph 1015.9mb 50f 53f
3:00 10 13 mph 1015.9mb 50f 53f
2:36 9 10 mph 1016mb 50f 53f
2:30 9 11 mph 1016mb 50f 53f
2:24 9 11 mph 1016mb 50f 53f
2:18 9 10 mph 1016.1mb 50f 53f
2:12 9 11 mph 1016.1mb 51f 53f
2:06 10 11 mph 1016.1mb 50f 53f
2:00 10 11 mph 1016.2mb 50f 53f
1:36 9 13 mph 1016.2mb 50f 53f
1:30 9 13 mph 1016.3mb 50f 53f
1:24 10 13 mph 1016.3mb 50f 53f
1:18 9 11 mph 1016.3mb 50f 53f
1:12 10 14 mph 1016.4mb 50f 53f
1:06 11 13 mph 1016.5mb 50f 53f
1:00 13 14 mph 1016.5mb 50f 53f
12:36 14 15 mph 1016.7mb 50f 53f
12:30 11 14 mph 1016.7mb 50f 53f
12:24 13 15 mph 1016.8mb 50f 53f
12:18 13 14 mph 1016.8mb 50f 53f
12:12 11 13 mph 1016.9mb 50f 53f
12:06 10 13 mph 1016.9mb 49f 53f
12:00 11 13 mph 1016.9mb 49f 53f
11:36 9 11 mph 1017mb 49f 53f
11:30 8 9 mph 1017mb 49f 53f
11:24 8 10 mph 1017mb 49f 53f
11:18 8 9 mph 1016.9mb 49f 53f
11:12 7 8 mph 1017mb 49f 53f
11:06 6 9 mph 1017mb 49f 53f
11:00 7 9 mph 1017.1mb 49f 53f
10:36 3 5 mph 1017.2mb 49f 54f
10:30 2 3 mph 1017.2mb 50f 53f
10:24 1 5 mph 1017.3mb 51f 52f
10:18 3 6 mph 1017.3mb 52f 51f
10:12 6 7 mph 1017.3mb 52f 50f
10:06 6 8 mph 1017.3mb 52f 49f
10:00 6 7 mph 1017.3mb 52f 49f
9:36 8 9 mph 1017.4mb 53f 47f
9:30 7 10 mph 1017.5mb 53f 47f
9:24 7 10 mph 1017.4mb 53f 46f
9:18 7 9 mph 1017.5mb 53f 46f
9:12 8 11 mph 1017.5mb 53f 45f
9:06 9 10 mph 1017.5mb 53f 45f
9:00 8 11 mph 1017.5mb 53f 45f
8:36 9 10 mph 1017.6mb 54f 43f
8:30 8 10 mph 1017.7mb 54f 43f
8:24 9 10 mph 1017.7mb 54f 43f
8:18 9 13 mph 1017.7mb 54f 43f
8:12 9 10 mph 1017.7mb 54f 43f
8:06 9 11 mph 1017.7mb 54f 43f
8:00 9 11 mph 1017.7mb 55f 43f
7:36 8 13 mph 1017.8mb 55f 43f
7:30 9 13 mph 1017.8mb 55f 43f
7:24 10 11 mph 1017.8mb 55f 43f
7:18 8 10 mph 1017.9mb 55f 43f
7:12 8 10 mph 1017.9mb 55f 43f
7:06 9 11 mph 1017.9mb 55f 43f
7:00 8 10 mph 1017.9mb 55f 43f
6:36 9 11 mph 1017.9mb 55f 43f
6:30 9 13 mph 1017.9mb 55f 43f
6:24 9 11 mph - - 43f
6:18 8 11 mph 1017.9mb 55f 44f
6:12 8 10 mph 1018mb 55f 44f
6:06 9 11 mph 1018mb 55f 44f
6:00 8 10 mph 1018mb 55f 44f
5:36 8 10 mph 1018.1mb 54f 44f
5:30 8 10 mph 1018.1mb 54f 44f
5:24 8 10 mph 1018.1mb 54f 44f
5:18 8 9 mph 1018.1mb 53f 44f
5:12 7 10 mph 1018.2mb 53f 44f
5:06 7 10 mph 1018.2mb 53f 44f
5:00 8 9 mph 1018.2mb 53f 44f
4:54 9 10 mph 1018.2mb 53f 44f
4:48 8 10 mph 1018.3mb 53f 44f
4:36 7 9 mph 1018.3mb 53f 44f
4:30 8 9 mph 1018.3mb 53f 44f
4:24 7 9 mph 1018.3mb 53f 44f
4:18 8 9 mph 1018.4mb 53f 44f
4:12 8 10 mph 1018.4mb 53f 44f
4:06 7 9 mph 1018.4mb 53f 44f
4:00 7 9 mph 1018.4mb 53f 44f
3:54 7 9 mph 1018.4mb 53f 44f
3:48 7 9 mph 1018.4mb 53f 44f
3:36 7 9 mph 1018.5mb 53f 44f
3:30 7 9 mph 1018.5mb 53f 44f
3:24 8 9 mph 1018.5mb 53f 44f
3:18 8 10 mph 1018.6mb 53f 44f
3:12 7 9 mph 1018.6mb 53f 44f
3:06 7 9 mph 1018.6mb 53f 44f
3:00 8 9 mph 1018.5mb 53f 45f
2:54 7 9 mph 1018.5mb 53f 45f
2:48 7 9 mph 1018.5mb 53f 45f
2:36 8 10 mph 1018.6mb 53f 45f
2:30 8 9 mph 1018.6mb 53f 45f
2:24 7 8 mph 1018.5mb 53f 46f
2:18 7 9 mph 1018.5mb 53f 46f
2:12 7 9 mph 1018.4mb 53f 46f
2:06 7 8 mph 1018.4mb 53f 46f
2:00 6 7 mph 1018.5mb 53f 46f
1:54 6 8 mph 1018.5mb 53f 46f
1:48 7 9 mph 1018.5mb 53f 46f
1:36 6 8 mph 1018.5mb 53f 47f
1:30 6 7 mph 1018.5mb 53f 47f
1:24 6 8 mph 1018.5mb 53f 47f
1:18 6 8 mph 1018.5mb 53f 47f
1:12 6 7 mph 1018.5mb 53f 47f
1:06 6 8 mph 1018.6mb 53f 47f
1:00 6 7 mph 1018.8mb 53f 48f
12:54 5 6 mph 1018.7mb 53f 48f
12:48 5 7 mph 1018.7mb 53f 48f
12:36 6 7 mph 1018.7mb 53f 48f
12:30 6 7 mph 1018.8mb 53f 49f
12:24 5 7 mph 1018.8mb 53f 49f
12:18 6 8 mph 1018.8mb 53f 49f
12:12 6 8 mph 1018.8mb 53f 49f
12:06 5 7 mph 1018.9mb 53f 50f
12:00 6 7 mph 1018.9mb 53f 50f
jue 09/29 11:54 5 6 mph 1018.9mb 53f 50f
11:48 5 7 mph 1018.8mb 53f 50f
11:36 6 7 mph 1019mb 53f 51f
11:30 5 6 mph 1019mb 53f 51f
11:24 2 3 mph 1019mb 53f 52f
11:18 2 5 mph 1019mb 53f 52f
11:12 3
mph
1019mb 53f 52f
11:06  -  3 mph 1019mb 53f 52f
11:00 2
mph
1019mb 53f 52f
10:54  -  1 mph 1019mb 53f 52f
10:48 1 2 mph 1019mb 53f 52f
10:36  -  2 mph 1019.1mb 53f 52f
10:30 1 2 mph 1019.1mb 53f 52f
10:24 1 3 mph 1019.1mb 53f 52f
10:18 2 3 mph 1019.1mb 53f 52f
10:12 2
mph
1019.1mb 53f 52f
10:06 1 3 mph 1019.1mb 53f 52f
10:00 2 5 mph 1019mb 53f 52f
9:54 2 3 mph 1019.1mb 53f 51f
9:48 2 5 mph 1019.1mb 54f 51f
9:36 3 5 mph 1019.2mb 54f 51f
9:30 3 5 mph 1019.1mb 54f 52f
9:24 2 3 mph 1019.2mb 54f 52f
9:18 3 7 mph 1019.1mb 54f 52f
9:12 2 5 mph 1019.2mb 54f 52f
9:06 3 5 mph 1019.2mb 54f 52f
9:00 3 5 mph 1019.3mb 54f 51f
8:54 2 3 mph 1019.3mb 55f 51f
8:48 2 3 mph 1019.3mb 55f 51f
8:36 1 2 mph 1019.2mb 55f 51f
8:30  -  5 mph 1019.3mb 55f 51f
8:24 2 3 mph 1019.3mb 55f 51f
8:18 2
mph
1019.3mb 55f 51f
8:12 2 3 mph 1019.3mb 55f 52f
8:06 2
mph
1019.3mb 55f 52f
8:00 1 2 mph 1019.3mb 56f 52f
7:54 1 2 mph 1019.3mb 56f 52f
7:48 1 2 mph 1019.3mb 56f 53f
7:36 1 6 mph 1019.2mb 56f 54f
7:30 5 6 mph 1019.3mb 56f 54f
7:24 6 7 mph 1019.3mb 56f 54f
7:18 6 8 mph 1019.3mb 56f 54f
7:12 7 8 mph 1019.2mb 57f 54f
7:06 6 8 mph 1019.3mb 57f 54f
7:00 7 8 mph 1019.2mb 57f 54f
6:54 6 7 mph 1019.3mb 57f 54f
6:48 7 8 mph 1019.3mb 57f 54f
6:36 6 8 mph 1019.4mb 57f 54f
6:30 8 9 mph 1019.3mb 57f 54f
6:24 6 7 mph 1019.3mb 57f 54f
6:18 7 9 mph 1019.4mb 57f 54f
6:12 7 8 mph 1019.4mb 57f 54f
6:06 7 9 mph 1019.3mb 57f 54f
6:00 7 9 mph 1019.4mb 57f 54f
5:54 7 8 mph 1019.5mb 57f 54f
5:48 6 8 mph 1019.4mb 57f 54f
5:36 7 8 mph 1019.2mb 56f 54f
5:30 7 8 mph 1019.4mb 56f 54f
5:24 6 8 mph 1019.4mb 56f 54f
5:18 6 7 mph 1019.3mb 55f 55f
5:12 7 9 mph 1019.3mb 55f 55f
5:06 6 7 mph 1019.5mb 55f 55f
5:00 7 8 mph 1019.4mb 55f 54f
4:54 6 7 mph 1019.4mb 55f 55f
4:48 6 8 mph 1019.4mb 54f 55f
4:36 6 7 mph 1019.6mb 54f 54f
4:30 6 7 mph - - 55f
4:24 6 8 mph 1019.6mb 54f 54f
4:18 6 8 mph 1019.5mb 53f 55f
4:12 7 8 mph - - 54f
4:06 6 7 mph 1019.6mb 53f 54f
4:00 6 7 mph 1019.6mb 53f 55f
3:54 6 7 mph 1019.6mb 53f 54f
3:48 6 7 mph 1019.6mb 53f 55f
3:36 6 8 mph 1019.6mb 53f 54f
3:30 6 8 mph 1019.7mb 53f 54f
3:24 7 8 mph 1019.7mb 53f 54f
3:18 6 7 mph 1019.7mb 53f 54f
3:12 6 7 mph 1019.7mb 53f 54f
3:06 6 8 mph 1019.6mb 53f 54f
3:00 6 7 mph 1019.7mb 53f 55f
2:54 6 7 mph 1019.8mb 53f 55f
2:48 6 8 mph 1019.8mb 53f 54f
2:36 6 8 mph 1019.8mb 53f 54f
2:30 7
mph
1019.8mb 53f 54f
2:24 6 7 mph 1019.6mb 53f 54f
2:18 6 7 mph 1019.7mb 53f 54f
2:12 6 8 mph 1019.7mb 53f 54f
2:06 7 8 mph 1019.7mb 53f 54f
2:00 6 7 mph 1019.8mb 53f 54f
1:54 6 7 mph 1019.8mb 53f 54f
1:48 6 7 mph 1019.7mb 53f 54f
1:36 7 8 mph 1019.9mb 53f 54f
1:30 6 7 mph 1019.7mb 53f 54f
1:24 6 7 mph 1019.9mb 53f 54f
1:18 6 7 mph 1019.9mb 52f 54f
1:12 5 6 mph 1019.9mb 51f 54f
1:06 5 6 mph 1019.9mb 51f 54f
1:00 3 6 mph 1019.7mb 51f 54f
12:54 6
mph
1019.8mb 51f 53f
12:48 5 6 mph 1019.7mb 51f 54f
12:36 3 5 mph 1019.8mb 51f 53f
12:30 5 6 mph 1019.8mb 51f 53f
12:24 5 6 mph 1019.9mb 51f 53f
12:18 3 5 mph 1019.9mb 51f 53f
12:12 3 5 mph 1019.9mb 51f 53f
12:06 3 5 mph 1019.9mb 51f 53f
12:00 3 6 mph 1019.8mb 51f 53f
11:54 3 5 mph 1019.9mb 51f 53f
11:48 5 6 mph 1019.8mb 51f 53f
11:36 3 6 mph 1019.8mb 51f 54f
11:30 3 6 mph 1019.9mb 51f 53f
11:24 2 3 mph 1020mb 51f 53f
11:18 2 3 mph 1019.9mb 51f 54f
11:12 2 3 mph 1019.8mb 51f 54f
11:06  -  1 mph 1019.8mb 51f 54f
11:00  -  2 mph 1019.8mb 51f 54f
10:54 1 2 mph 1019.8mb 51f 54f
10:48 1 3 mph 1019.8mb 51f 53f
10:36 2 5 mph 1019.8mb 52f 51f
10:30 3 5 mph 1019.8mb 53f 51f
10:24 5 7 mph 1019.9mb 53f 49f
10:18 6 7 mph 1019.9mb 53f 49f
10:12 6 8 mph 1019.9mb 53f 48f
10:06 7 8 mph 1019.8mb 53f 47f
10:00 6 9 mph 1019.8mb 53f 47f
9:54 6 9 mph 1019.8mb 53f 46f
9:48 7 10 mph 1019.8mb 54f 45f
9:36 7 11 mph 1019.8mb 54f 44f
9:30 9 11 mph 1019.8mb 54f 44f
9:24 8 10 mph 1019.8mb 54f 43f
9:18 8 10 mph 1019.8mb 55f 42f
9:12 8 11 mph 1019.8mb 55f 42f
9:06 9 11 mph 1019.8mb 55f 42f
9:00 9 11 mph 1019.7mb 55f 41f
8:54 8 11 mph 1019.7mb 55f 41f
8:48 9 13 mph 1019.6mb 55f 40f
8:36 8 11 mph 1019.6mb 55f 40f
8:30 9 13 mph 1019.5mb 56f 40f
8:24 7 13 mph 1019.5mb 56f 40f
8:18 9 13 mph 1019.4mb 56f 40f
8:12 9 11 mph 1019.4mb 56f 40f
8:06 8 10 mph 1019.4mb 56f 40f
8:00 9 11 mph 1019.4mb 56f 40f
7:54 8 11 mph 1019.4mb 57f 40f
7:48 8 11 mph 1019.4mb 57f 40f
7:36 8 10 mph 1019.4mb 57f 40f
7:30 8 11 mph 1019.3mb 57f 40f
7:24 9 11 mph 1019.3mb 57f 40f
7:18 9 11 mph 1019.2mb 57f 40f
7:12 9 13 mph 1019.2mb 57f 40f
7:06 8 10 mph 1019.2mb 57f 40f
7:00 8 9 mph 1019.1mb 57f 40f
6:54 7 10 mph 1019.1mb 57f 40f
6:48 7 10 mph 1019.1mb 57f 40f
6:36 8 11 mph 1019.2mb 57f 40f
6:30 9 10 mph 1019.2mb 57f 40f
6:24 9 11 mph 1019.1mb 57f 40f
6:18 8 10 mph 1019.1mb 57f 40f
6:12 8 11 mph 1019.1mb 57f 40f
6:06 9 11 mph 1019mb 57f 40f
6:00 8 10 mph 1019mb 57f 40f
5:54 7 9 mph 1018.9mb 57f 40f
5:48 8 10 mph 1019mb 57f 40f
5:36 8 10 mph 1018.9mb 57f 40f
5:30 8 10 mph 1018.9mb 57f 40f
5:24 7 10 mph 1018.9mb 57f 40f
5:18 9 10 mph 1019mb 58f 40f
5:12 8 11 mph 1019mb 57f 40f
5:06 8 10 mph 1019mb 57f 40f
5:00 8 10 mph 1018.9mb 57f 40f
4:54 8 10 mph 1018.9mb 57f 40f
4:48 6 9 mph 1018.8mb 56f 40f
4:36 7 10 mph 1018.9mb 56f 40f
4:30 5 9 mph 1018.9mb 56f 41f
4:24 7 9 mph 1018.9mb 56f 41f
4:18 9 11 mph 1018.9mb 56f 41f
4:12 8 10 mph 1018.9mb 56f 41f
4:06 9 11 mph 1018.9mb 56f 41f
4:00 9 10 mph 1018.9mb 56f 41f
3:54 9 11 mph 1019mb 56f 42f
3:48 8 11 mph 1019mb 56f 41f
3:36 9 11 mph 1019mb 55f 42f
3:30 9 11 mph 1018.9mb 55f 42f
3:24 8 11 mph 1019mb 55f 42f
3:18 8 11 mph 1018.9mb 55f 42f
3:12 8 11 mph 1018.9mb 55f 42f
3:06 9 13 mph 1019mb 55f 42f
3:00 8 11 mph 1019mb 55f 42f
2:54 8 11 mph 1019mb 55f 42f
2:48 8 10 mph 1019.1mb 55f 42f
2:36 8 11 mph 1019mb 55f 42f
2:30 9 11 mph 1019mb 55f 42f
2:24 7 10 mph 1019mb 55f 42f
2:18 9 10 mph 1019mb 55f 43f
2:12 8 10 mph 1019mb 55f 43f
2:06 9 11 mph 1019mb 55f 44f
2:00 7 10 mph 1018.9mb 55f 44f
1:36 8 9 mph 1018.9mb 55f 44f
1:30 7 8 mph 1018.9mb 55f 44f
1:24 7 8 mph 1018.9mb 55f 44f
1:18 6 8 mph 1019mb 55f 44f
1:12 6 7 mph 1019mb 55f 44f
1:06 1 7 mph 1019mb 55f 44f
1:00 5 6 mph 1019mb 55f 45f
12:54 6 7 mph 1019mb 55f 45f
12:48 6 7 mph 1019mb 55f 45f
12:36 6 8 mph 1019mb 55f 46f
12:30 7 8 mph 1019mb 55f 46f
12:24 7 8 mph 1018.9mb 55f 46f
12:18 7 9 mph 1018.9mb 55f 46f
12:12 7 8 mph 1018.9mb 55f 46f
12:06 6 7 mph 1018.9mb 55f 47f
12:00 7 8 mph 1018.9mb 55f 47f
mié 09/28 11:54 6 8 mph 1019mb 55f 46f
11:48 6 8 mph 1019mb 55f 46f
11:36 5 9 mph 1019.1mb 55f 46f
11:30 8 9 mph 1019.1mb 55f 47f
11:24 7 9 mph 1019.1mb 55f 47f
11:18 6 8 mph 1019.1mb 55f 47f
11:12 5 8 mph 1019.1mb 55f 48f
11:06 6 7 mph 1019.1mb 55f 49f
11:00 5 6 mph 1019.1mb 55f 48f
10:54 3 6 mph 1019.1mb 55f 49f
10:48 3 6 mph 1019.1mb 55f 49f
10:36 3 7 mph 1019.1mb 55f 50f
10:30 3 9 mph 1019.1mb 55f 50f
10:24 5 7 mph 1019.1mb 55f 51f
10:18 6 8 mph 1019.1mb 55f 50f
10:12 3 7 mph 1019.1mb 55f 50f
10:06 3 7 mph 1019.1mb 55f 50f
10:00 3 7 mph 1019.1mb 55f 51f
9:54 5 6 mph 1019.1mb 55f 51f
9:48 3 7 mph 1019.1mb 55f 52f
9:36 5 8 mph 1019.1mb 55f 52f
9:30 5 8 mph 1019.1mb 55f 52f
9:24 6 7 mph 1019mb 55f 52f
9:18 6 8 mph 1019mb 55f 52f
9:12 5 8 mph 1019mb 55f 52f
9:06 5 8 mph 1019mb 55f 52f
9:00 3 7 mph 1019mb 56f 53f
8:36 5 11 mph 1019.1mb 56f 53f
8:30 6 9 mph 1019.1mb 56f 53f
8:24 3 8 mph 1019mb 56f 53f
8:18 6 13 mph 1019mb 56f 53f
8:12 6 13 mph 1019mb 56f 54f
8:06 7 13 mph 1019mb 57f 54f
8:00 7 14 mph 1019mb 57f 54f
7:54 11 16 mph 1019mb 57f 54f
7:48 9 13 mph 1018.9mb 57f 54f
7:36 10 14 mph 1018.9mb 57f 54f
7:30 11 16 mph 1018.9mb 58f 54f
7:24 10 16 mph 1018.9mb 58f 54f
7:18 15 17 mph 1018.8mb 58f 54f
7:12 15 18 mph 1018.7mb 58f 54f
7:06 15 20 mph 1018.7mb 58f 54f
7:00 16 20 mph 1018.7mb 58f 55f
6:54 17 21 mph 1018.7mb 58f 55f
6:48 17 22 mph 1018.7mb 58f 55f
6:36 20 23 mph 1018.6mb 58f 55f
6:30 20 23 mph 1018.7mb 58f 55f
6:24 18 23 mph 1018.6mb 58f 55f
6:18 21 24 mph 1018.6mb 58f 55f
6:12 20 23 mph 1018.6mb 58f 55f
6:06 18 22 mph 1018.7mb 58f 55f
6:00 20 22 mph 1018.7mb 58f 55f
5:54 18 22 mph 1018.8mb 59f 55f
5:48 20 23 mph 1018.8mb 58f 55f
5:36 20 24 mph 1018.8mb 58f 55f
5:30 18 23 mph 1018.8mb 58f 55f
5:24 18 24 mph 1018.9mb 58f 55f
5:18 21 24 mph 1018.9mb 58f 55f
5:12 20 24 mph 1018.9mb 58f 55f
5:06 20 23 mph 1019mb 58f 55f
5:00 18 23 mph 1019mb 58f 55f
4:54 20 23 mph 1019mb 58f 55f
4:48 18 24 mph 1019mb 58f 55f
4:36 21 24 mph 1019mb 57f 55f
4:30 20 24 mph 1019mb 57f 55f
4:24 20 24 mph 1019mb 57f 55f
4:18 22 24 mph 1019mb 57f 55f
4:12 22 24 mph 1019mb 57f 55f
4:06 20 24 mph 1019mb 57f 55f
4:00 21 24 mph 1019.1mb 57f 55f
3:54 22 24 mph 1019mb 57f 55f
3:48 21 24 mph 1019mb 56f 55f
3:36 21 25 mph 1019.1mb 56f 55f
3:30 23 25 mph 1019.1mb 56f 55f
3:24 21 24 mph 1019.1mb 56f 55f
3:18 21 24 mph 1019.2mb 56f 55f
3:12 20 23 mph 1019.2mb 56f 55f
3:06 22 24 mph 1019.2mb 56f 55f
3:00 22 25 mph 1019.2mb 56f 55f
2:54 22 25 mph 1019.3mb 56f 55f
2:48 22 26 mph 1019.3mb 56f 55f
2:36 21 23 mph 1019.3mb 56f 55f
2:30 22 25 mph 1019.4mb 56f 55f
2:24 22 26 mph 1019.4mb 56f 55f
2:18 22 24 mph 1019.3mb 55f 55f
2:12 21 24 mph 1019.4mb 55f 55f
2:06 21 24 mph 1019.5mb 55f 55f
2:00 20 23 mph 1019.5mb 55f 55f
1:54 18 22 mph 1019.5mb 55f 55f
1:48 17 21 mph 1019.5mb 55f 55f
1:36 20 22 mph 1019.6mb 55f 55f
1:30 17 21 mph 1019.6mb 55f 55f
1:24 16 20 mph 1019.6mb 55f 55f
1:18 16 20 mph 1019.7mb 55f 55f
1:12 16 20 mph 1019.7mb 55f 55f
1:06 16 20 mph 1019.8mb 55f 55f
1:00 15 18 mph 1019.8mb 54f 55f
12:54 16 21 mph 1019.9mb 55f 55f
12:48 17 21 mph 1019.9mb 55f 55f
12:36 18 22 mph 1019.9mb 54f 55f
12:30 16 21 mph 1019.9mb 55f 55f
12:24 17 22 mph 1020mb 55f 55f
12:18 17 20 mph 1020.1mb 55f 55f
12:12 16 18 mph 1020.1mb 55f 54f
12:06 16 18 mph 1020.1mb 55f 54f
12:00 15 16 mph 1020.1mb 55f 54f
11:54 14 17 mph 1020.1mb 55f 54f
11:48 16 17 mph 1020.1mb 55f 54f
11:36 14 17 mph 1020.2mb 55f 54f
11:30 15 17 mph 1020.2mb 55f 54f
11:24 15 17 mph 1020.3mb 55f 54f
11:18 15 16 mph 1020.3mb 55f 54f
11:12 13 16 mph 1020.3mb 55f 55f
11:06 2 3 mph 1020.4mb 54f 54f
11:00 3 5 mph 1020.4mb 54f 55f
10:54 1 3 mph 1020.4mb 55f 55f
10:48  -  2 mph 1020.4mb 55f 55f
10:36 1 2 mph 1020.3mb 55f 55f
10:30  -  3 mph 1020.3mb 55f 54f
10:24 2 5 mph 1020.3mb 55f 53f
10:18 3 5 mph 1020.4mb 55f 53f
10:12 3 6 mph 1020.4mb 55f 52f
10:06 5 7 mph 1020.4mb 55f 51f
10:00 6 7 mph 1020.5mb 56f 51f
9:54 6 8 mph 1020.5mb 56f 50f
9:48 7 8 mph 1020.5mb 56f 50f
9:36 6 8 mph 1020.4mb 56f 49f
9:30 6 8 mph 1020.5mb 56f 48f
9:24 6 9 mph - - 48f
9:18 8 9 mph 1020.4mb 57f 47f
9:12 7 9 mph 1020.3mb 57f 47f
9:06 7 10 mph 1020.4mb 57f 47f
9:00 7 10 mph 1020.3mb 57f 46f
8:54 8 10 mph 1020.4mb 57f 46f
8:48 7 10 mph 1020.4mb 57f 46f
8:36 8 9 mph 1020.4mb 57f 46f
8:30 7 9 mph 1020.4mb 57f 45f
8:24 7 9 mph 1020.3mb 57f 45f
8:18 6 9 mph 1020.3mb 57f 45f
8:12 6 7 mph 1020.3mb 57f 45f
8:06 3 7 mph 1020.3mb 57f 45f
8:00 6 9 mph 1020.2mb 58f 45f
7:54 8 10 mph 1020.2mb 58f 45f
7:48 6 8 mph 1020.2mb 58f 45f
7:36 6 7 mph 1020.2mb 58f 44f
7:30 5 6 mph 1020.2mb 58f 44f
7:24 2 7 mph 1020.2mb 58f 45f
7:18 6 7 mph 1020.2mb 58f 44f
7:12 5
mph
1020.2mb 58f 44f
7:06 3 6 mph 1020.2mb 58f 45f
7:00 5 6 mph 1020.2mb 58f 45f
6:54 5 7 mph 1020.2mb 58f 45f
6:48 6 7 mph 1020.2mb 58f 45f
6:36 2 5 mph 1020.2mb 59f 46f
6:30 3 6 mph 1020.2mb 59f 46f
6:24 6 8 mph 1020.1mb 59f 46f
6:18 6 7 mph 1020.1mb 59f 46f
6:12 6 7 mph 1020.1mb 59f 46f
6:06 3 6 mph 1020.1mb 59f 46f
6:00 3 7 mph 1020.1mb 59f 46f
5:36 6 7 mph 1020.1mb 59f 46f
5:30 3 6 mph 1020.1mb 59f 46f
5:24 5 7 mph 1020mb 59f 46f
5:18 6 8 mph 1019.9mb 59f 46f
5:12 5 7 mph 1019.9mb 58f 46f
5:06 2 6 mph 1019.9mb 59f 46f
5:00 2 5 mph 1019.7mb 59f 46f
4:54 2 5 mph 1019.7mb 59f 46f
4:48 3 6 mph 1019.8mb 59f 46f
4:36 3 8 mph 1019.6mb 59f 47f
4:30 5 8 mph 1019.6mb 59f 47f
4:24 5 8 mph 1019.6mb 59f 47f
4:18 3 7 mph 1019.6mb 59f 47f
4:12 2 6 mph 1019.7mb 59f 47f
4:06 5 6 mph 1019.8mb 59f 47f
4:00 5 7 mph 1019.9mb 59f 47f
3:54 3 8 mph 1019.9mb 59f 48f
3:48 7 8 mph 1019.9mb 58f 48f
3:36 5 6 mph 1019.9mb 58f 48f
3:30 5 7 mph 1019.9mb 58f 48f
3:24 5 6 mph 1019.9mb 58f 48f
3:18 3 6 mph 1020mb 58f 48f
3:12 2 5 mph 1019.9mb 58f 48f
3:06 5 7 mph 1020mb 58f 48f
3:00 3 6 mph 1020.1mb 58f 48f
2:54 3 5 mph 1020.1mb 58f 49f
2:48 3 5 mph 1020.1mb 58f 49f
2:36 3 6 mph 1020.1mb 58f 49f
2:30 6 7 mph 1020.2mb 58f 49f
2:24 3 7 mph 1020.2mb 58f 49f
2:18 6 8 mph 1020.2mb 57f 49f
2:12 7 9 mph 1020.2mb 57f 49f
2:06 7 9 mph 1020.2mb 57f 49f
2:00 6 8 mph 1020.2mb 57f 49f
1:54 5 7 mph 1020.3mb 57f 49f
1:48 5 7 mph 1020.4mb 57f 48f
1:36 3 6 mph 1020.5mb 57f 49f
1:30 3 5 mph 1020.5mb 57f 49f
1:24 3
mph
1020.5mb 57f 49f
1:18 2 3 mph 1020.4mb 57f 50f
1:12 2 3 mph 1020.4mb 57f 49f
1:06 3
mph
1020.5mb 57f 49f
1:00 2 3 mph 1020.6mb 57f 50f
12:54 2 3 mph 1020.6mb 57f 50f
12:48 2 3 mph 1020.6mb 57f 50f
12:36 2 3 mph 1020.7mb 57f 50f
12:30 3
mph
1020.7mb 57f 50f
12:24 2 5 mph 1020.7mb 57f 49f
12:18 3 5 mph 1020.7mb 57f 49f
12:12 3 5 mph 1020.9mb 57f 49f
12:06 5 6 mph 1020.9mb 57f 49f
12:00 2 3 mph 1020.8mb 57f 50f
mar 09/27 11:54 3
mph
1020.8mb 57f 49f
11:48 2 3 mph 1020.8mb 57f 50f
11:36 2 3 mph 1020.8mb 57f 50f
11:30 2 3 mph 1020.9mb 57f 50f
11:24 2 3 mph 1020.9mb 57f 50f
11:18 3
mph
1020.9mb 57f 49f
11:12 2 3 mph 1020.9mb 57f 50f
11:06 2 3 mph 1021mb 57f 50f
11:00 2
mph
1021.1mb 57f 51f
10:54 2
mph
1021.1mb 57f 51f
10:48 1 3 mph 1021mb 57f 51f
10:36  -  2 mph 1021mb 58f 53f
10:30 1 2 mph 1021.1mb 58f 53f
10:24 2
mph
1021mb 58f 53f
10:18  -  2 mph 1021.1mb 58f 53f
10:12 2 5 mph 1021.1mb 58f 53f
10:06 3
mph
1021.2mb 58f 52f
10:00 2 5 mph 1021.2mb 58f 53f
9:54 3 5 mph 1021.2mb 58f 54f
9:48 2 3 mph 1021.3mb 57f 54f
9:36 2 3 mph 1021.4mb 57f 54f
9:30 3 6 mph 1021.5mb 57f 55f
9:24 3 6 mph 1021.5mb 57f 55f
9:18 3 6 mph 1021.4mb 57f 55f
9:12 3 6 mph 1021.3mb 57f 54f
9:06 3 5 mph 1021.3mb 57f 54f
9:00 3 5 mph 1021.3mb 57f 54f
8:54 3 5 mph 1021.2mb 57f 55f
8:48 3 5 mph 1021.2mb 57f 55f
8:36 3 5 mph 1021.3mb 57f 55f
8:30 3 5 mph 1021.3mb 57f 55f
8:24 3 5 mph 1021.2mb 57f 55f
8:18 3
mph
1021.1mb 57f 55f
8:12 3 5 mph 1021.3mb 57f 55f
8:06 3
mph
1021.2mb 58f 56f
8:00 5 6 mph 1021.3mb 58f 57f
7:54 6
mph
1021.3mb 58f 57f
7:48 7 9 mph 1021.3mb 58f 57f
7:36 8 10 mph 1021.2mb 58f 57f
7:30 8 10 mph 1021.3mb 58f 57f
7:24 9 11 mph 1021.2mb 58f 57f
7:18 10 13 mph 1021.3mb 58f 57f
7:12 11 13 mph 1021.3mb 58f 57f
7:06 11 14 mph 1021.3mb 58f 56f
7:00 13 15 mph 1021.2mb 58f 56f
6:54 14 16 mph 1021.3mb 58f 57f
6:48 14 16 mph 1021.2mb 58f 57f
6:36 14 17 mph 1021.3mb 58f 57f
6:30 15 18 mph 1021.4mb 58f 57f
6:24 15 17 mph 1021.5mb 58f 57f
6:18 15 17 mph 1021.4mb 58f 57f
6:12 14 17 mph 1021.5mb 58f 57f
6:06 15 17 mph 1021.6mb 58f 57f
6:00 15 18 mph 1021.6mb 58f 57f
5:54 15 18 mph 1021.6mb 59f 56f
5:48 15 18 mph 1021.6mb 59f 56f
5:36 16 20 mph 1021.7mb 59f 56f
5:30 18 21 mph 1021.7mb 59f 57f
5:24 18 22 mph 1021.7mb 59f 56f
5:18 20 22 mph 1021.8mb 59f 56f
5:12 17 22 mph 1021.8mb 59f 56f
5:06 18 22 mph 1021.9mb 59f 56f
5:00 18 21 mph 1021.9mb 59f 56f
4:54 18 22 mph 1021.9mb 59f 56f
4:48 18 22 mph 1022mb 59f 56f
4:36 18 22 mph 1022mb 59f 56f
4:30 18 22 mph 1022.1mb 59f 56f
4:24 20 22 mph 1022.2mb 58f 56f
4:18 17 21 mph 1022.2mb 58f 55f
4:12 17 21 mph 1022.2mb 58f 55f
4:06 17 21 mph 1022.3mb 58f 55f
4:00 17 22 mph 1022.3mb 58f 55f
3:54 16 20 mph 1022.3mb 58f 55f
3:48 17 22 mph 1022.4mb 58f 54f
3:36 18 22 mph 1022.5mb 58f 54f
3:30 18 21 mph 1022.5mb 58f 54f
3:24 16 21 mph 1022.5mb 58f 54f
3:18 18 22 mph 1022.5mb 58f 54f
3:12 18 22 mph 1022.5mb 58f 54f
3:06 18 21 mph 1022.6mb 58f 54f
3:00 17 18 mph 1022.7mb 58f 54f
2:54 16 20 mph 1022.7mb 58f 54f
2:48 17 21 mph 1022.9mb 57f 54f
2:36 14 20 mph 1022.9mb 58f 54f
2:30 16 18 mph 1023mb 58f 54f
2:24 15 21 mph 1023mb 58f 54f
2:18 16 21 mph 1022.9mb 58f 54f
2:12 16 18 mph 1023mb 57f 54f
2:06 16 18 mph 1023.1mb 57f 55f
2:00 15 17 mph 1023.2mb 57f 55f
1:54 13 16 mph 1023.2mb 56f 55f
1:48 14 16 mph 1023.3mb 56f 55f
1:36 13 15 mph 1023.3mb 56f 55f
1:30 13 15 mph 1023.2mb 56f 55f
1:24 13 15 mph 1023.2mb 56f 55f
1:18 14 15 mph 1023.2mb 56f 55f
1:12 13 15 mph 1023.3mb 56f 55f
1:06 13 15 mph 1023.3mb 56f 55f
1:00 14 15 mph 1023.3mb 56f 55f
12:54 14 16 mph 1023.3mb 56f 55f
12:48 14 15 mph 1023.3mb 56f 55f
12:36 13 15 mph 1023.3mb 56f 55f
12:30 14 16 mph 1023.3mb 56f 55f
12:24 14 16 mph 1023.3mb 56f 55f